Camp Rogers, Georgia
Current Conditions -  °F | °C
As of 11:58 AM on Saturday 25 Oct 2014 (Local Time) from KLSF Reporting Station
Clear Clear  
Wind Chill: 67°   Ceiling: Unl
Heat Index: 67°   Visibility: 10mi
Dew Point: 47°   Wind: 8mph
Humidity: 49%   Direction: 350°N
Pressure: 30.08"   Gusts: NA
Location:  32.373°N, 84.7961°W
Report Text: KLSF 251558Z AUTO 35007KT 10SM CLR 19/09 A3008 RMK AO2 SLP188 T01940085
Loading
Personal Weather Stations






























Interactive Weather Map
Tropical Storm Tracking
New forecast layout! Learn more

10-Day Weather Forecast

Advertisements
Track Severe Weather on mobile